Terminal Aerodrome Forecast
Issued by NWS

Home | Current Version | Previous Version | Text Only | Print | Product List | Glossary On
Versions: 1 2 3 4 5 6 7 8 9 10 11 12 13 14 15 16 17 18 19 20 21 22 23 24 25
300
FTUS43 KOAX 241729
TAFBFF
TAF
KBFF 241729Z 2418/2518 15012KT P6SM SCT080
     FM242100 12015G25KT P6SM VCTS SCT080CB
      TEMPO 2421/2501 VRB25G35KT 3SM -TSRA BKN020CB
     FM250100 VRB05KT P6SM SCT100
     FM251600 28012G18KT P6SM SCT100=

USA.gov is the U.S. government's official web portal to all federal, state and local government web resources and services.